Fayette, Alabama
Current Conditions -  °F | °C
As of 1:55 PM on Sunday 23 Nov 2014 (Local Time) from KJFX Reporting Station
Light Rain Light Rain  
Wind Chill: 63°   Ceiling: Unl
Heat Index: 63°   Visibility: 2.5mi
Dew Point: 63°   Wind: 7mph
Humidity: 100%   Direction: 130°SE
Pressure: 29.53"   Gusts: NA
Location:  33.68°N, 87.83°W
Report Text: KJFX 231955Z AUTO 13006KT 2 1/2SM -RA FEW002 SCT006 SCT012 17/17 A2953 RMK A02 P-128
Loading
Personal Weather Stations






























Interactive Weather Map New forecast layout! Learn more

10-Day Weather Forecast

Advertisements
Track Severe Weather on mobile